Terminal Aerodrome Forecast
Issued by NWS

Home | Current Version | Previous Version | Text Only | Print | Product List | Glossary On
Versions: 1 2 3 4 5 6 7 8 9 10 11 12 13 14 15 16 17 18 19 20 21 22
227
FTUS41 KPBZ 130520
TAFBVI
TAF
KBVI 130520Z 1306/1406 30020G30KT 4SM -SHSN OVC028
      TEMPO 1306/1309 1SM -SHSN OVC020
     FM131500 31012G20KT P6SM BKN035
      AMD NOT SKED=

USA.gov is the U.S. government's official web portal to all federal, state and local government web resources and services.